createdAt,value
2023-04-01T00:00:24.144Z,18.2
2023-04-01T00:10:24.754Z,18.3
2023-04-01T00:20:25.199Z,18.3
2023-04-01T00:30:25.667Z,18.3
2023-04-01T00:40:26.401Z,18.2
2023-04-01T00:50:26.797Z,18.1
2023-04-01T01:00:27.135Z,18.3
2023-04-01T01:10:27.490Z,18.1
2023-04-01T01:20:27.614Z,18.1
2023-04-01T01:30:28.064Z,18.1
2023-04-01T01:40:28.245Z,18.1
2023-04-01T01:50:28.607Z,17.9
2023-04-01T02:00:28.845Z,18
2023-04-01T02:10:29.247Z,18
2023-04-01T02:20:29.763Z,17.9
2023-04-01T02:30:30.383Z,17.8
2023-04-01T02:40:30.183Z,18
2023-04-01T02:50:30.586Z,17.9
2023-04-01T03:10:09.277Z,18
2023-04-01T03:20:10.919Z,18
2023-04-01T03:30:12.343Z,17.9
2023-04-01T03:40:13.592Z,18.2
2023-04-01T03:50:14.842Z,18.2
2023-04-01T04:00:16.196Z,18.1
2023-04-01T04:10:18.434Z,17.9
2023-04-01T04:20:20.724Z,17.9
2023-04-01T04:30:23.070Z,17.9
2023-04-01T04:40:25.155Z,18.1
2023-04-01T04:50:27.512Z,17.8
2023-04-01T05:00:29.047Z,17.9
2023-04-01T05:10:30.378Z,17.9
2023-04-01T05:20:31.334Z,17.9
2023-04-01T05:30:37.908Z,17.4
2023-04-01T05:46:48.161Z,16.8
2023-04-01T05:57:09.274Z,17.1
2023-04-01T06:07:30.123Z,17.7
2023-04-01T06:17:47.687Z,17.3
2023-04-01T06:28:00.130Z,18.3
2023-04-01T06:38:10.081Z,18.1
2023-04-01T06:48:17.225Z,17.6
2023-04-01T06:58:22.936Z,18.9
2023-04-01T07:08:25.249Z,18.6
2023-04-01T07:18:31.209Z,18.8
2023-04-01T07:28:39.109Z,18.6
2023-04-01T07:38:46.657Z,18.8
2023-04-01T07:48:51.654Z,18.9
2023-04-01T07:58:54.502Z,19.1
2023-04-01T08:08:55.360Z,18.3
2023-04-01T08:19:03.405Z,18.8
2023-04-01T08:29:14.408Z,20.1
2023-04-01T08:39:31.336Z,19.1
2023-04-01T08:49:47.563Z,18.6
2023-04-01T09:10:21.171Z,19.5
2023-04-01T09:20:30.506Z,20.1
2023-04-01T09:30:37.175Z,19.9
2023-04-01T09:40:44.910Z,19.9
2023-04-01T09:50:55.270Z,20
2023-04-01T10:01:07.085Z,20
2023-04-01T10:11:17.093Z,20.2
2023-04-01T10:21:26.292Z,20.1
2023-04-01T10:31:38.547Z,20.1
2023-04-01T10:41:49.099Z,19.9
2023-04-01T10:51:57.981Z,20.1
2023-04-01T11:12:13.343Z,20.3
2023-04-01T11:22:16.954Z,19.9
2023-04-01T11:32:16.221Z,19.8
2023-04-01T11:42:17.705Z,19.8
2023-04-01T11:52:19.544Z,19.8
2023-04-01T12:02:21.224Z,19.8
2023-04-01T12:12:19.848Z,19.9
2023-04-01T12:22:27.423Z,20.1
2023-04-01T12:32:35.116Z,19.8
2023-04-01T12:42:37.595Z,19.9
2023-04-01T12:52:38.379Z,19.8
2023-04-01T13:02:38.743Z,19.4
2023-04-01T13:12:39.594Z,19.7
2023-04-01T13:22:45.325Z,19.6
2023-04-01T13:32:49.628Z,19.5
2023-04-01T13:42:48.800Z,19.5
2023-04-01T13:52:49.847Z,19.4
2023-04-01T14:02:54.548Z,20.1
2023-04-01T14:12:53.357Z,19.8
2023-04-01T14:22:53.757Z,19.3
2023-04-01T14:32:54.817Z,19.2
2023-04-01T14:42:55.337Z,19.9
2023-04-01T14:52:57.412Z,19.6
2023-04-01T15:10:08.949Z,19.3
2023-04-01T15:20:09.222Z,19.7
2023-04-01T15:30:09.853Z,19.6
2023-04-01T15:40:10.450Z,19.5
2023-04-01T15:50:11.173Z,19.6
2023-04-01T16:00:11.639Z,19.2
2023-04-01T16:10:13.596Z,19.5
2023-04-01T16:20:15.071Z,19.5
2023-04-01T16:30:17.170Z,19.6
2023-04-01T16:40:18.705Z,18.9
2023-04-01T16:50:20.039Z,18.9
2023-04-01T17:00:20.879Z,18.8
2023-04-01T17:10:21.907Z,18.5
2023-04-01T17:20:21.641Z,18.4
2023-04-01T17:30:21.590Z,18.5
2023-04-01T17:40:21.029Z,18.5
2023-04-01T17:50:21.554Z,18.8
2023-04-01T18:00:21.759Z,18.3
2023-04-01T18:10:20.947Z,18.3
2023-04-01T18:20:21.372Z,18.6
2023-04-01T18:30:20.907Z,18.2
2023-04-01T18:40:21.268Z,18.1
2023-04-01T18:50:21.640Z,18
2023-04-01T19:00:21.387Z,17.9
2023-04-01T19:10:22.123Z,17.9
2023-04-01T19:20:22.593Z,17.9
2023-04-01T19:30:22.218Z,17.9
2023-04-01T19:40:22.242Z,17.8
2023-04-01T19:50:22.784Z,18
2023-04-01T20:00:22.724Z,18.3
2023-04-01T20:10:22.172Z,17.8
2023-04-01T20:20:22.137Z,17.8
2023-04-01T20:30:21.883Z,17.8
2023-04-01T20:40:21.957Z,17.6
2023-04-01T20:50:22.104Z,17.7
2023-04-01T21:10:08.370Z,17.6
2023-04-01T21:20:07.534Z,17.6
2023-04-01T21:30:07.715Z,17.6
2023-04-01T21:40:07.585Z,17.6
2023-04-01T21:50:07.122Z,17.6
2023-04-01T22:00:07.167Z,17.6
2023-04-01T22:10:08.350Z,17.6
2023-04-01T22:20:09.214Z,17.6
2023-04-01T22:30:10.687Z,17.4
2023-04-01T22:40:11.320Z,18.1
2023-04-01T22:50:13.433Z,17.6
2023-04-01T23:00:13.396Z,17.5
2023-04-01T23:10:13.684Z,17.5
2023-04-01T23:20:13.452Z,17.5
2023-04-01T23:30:14.214Z,17.6
2023-04-01T23:40:14.304Z,17.4
2023-04-01T23:50:13.838Z,17.5
